createdAt,value
2019-01-04T00:02:48.207Z,65.20
2019-01-04T00:07:51.938Z,64.50
2019-01-04T00:12:55.698Z,64.50
2019-01-04T00:17:59.676Z,64.50
2019-01-04T00:23:03.764Z,64.90
2019-01-04T00:28:07.693Z,65.50
2019-01-04T00:33:11.279Z,65.40
2019-01-04T00:38:15.747Z,65.40
2019-01-04T00:43:19.363Z,65.20
2019-01-04T00:48:23.118Z,65.80
2019-01-04T00:53:26.830Z,65.80
2019-01-04T00:58:55.963Z,65.80
2019-01-04T01:04:27.742Z,65.40
2019-01-04T01:09:37.045Z,65.70
2019-01-04T01:14:46.647Z,65.80
2019-01-04T01:20:02.202Z,65.30
2019-01-04T01:25:17.655Z,64.90
2019-01-04T01:30:40.530Z,65.50
2019-01-04T01:35:51.491Z,65.80
2019-01-04T01:41:14.366Z,65.40
2019-01-04T01:46:36.086Z,65.60
2019-01-04T01:51:45.389Z,66.10
2019-01-04T01:56:51.782Z,65.80
2019-01-04T02:01:59.776Z,65.90
2019-01-04T02:07:03.379Z,66.00
2019-01-04T02:12:06.986Z,66.30
2019-01-04T02:17:10.599Z,66.50
2019-01-04T02:22:17.026Z,66.80
2019-01-04T02:27:22.236Z,67.00
2019-01-04T02:32:25.969Z,66.80
2019-01-04T02:37:29.536Z,66.20
2019-01-04T02:42:33.147Z,66.60
2019-01-04T02:47:40.750Z,66.90
2019-01-04T02:52:44.381Z,66.00
2019-01-04T02:57:50.419Z,66.00
2019-01-04T03:02:59.467Z,66.00
2019-01-04T03:08:04.712Z,65.90
2019-01-04T03:13:14.102Z,66.30
2019-01-04T03:18:17.719Z,66.70
2019-01-04T03:23:21.332Z,66.40
2019-01-04T03:28:27.737Z,66.60
2019-01-04T03:33:31.337Z,66.40
2019-01-04T03:38:36.102Z,66.50
2019-01-04T03:43:39.667Z,66.80
2019-01-04T03:48:45.293Z,66.70
2019-01-04T03:53:51.583Z,66.80
2019-01-04T03:58:57.116Z,66.60
2019-01-04T04:04:06.146Z,66.70
2019-01-04T04:09:14.419Z,66.60
2019-01-04T04:14:18.010Z,66.60
2019-01-04T04:19:21.614Z,66.40
2019-01-04T04:24:30.963Z,66.50
2019-01-04T04:29:34.561Z,66.20
2019-01-04T04:34:40.844Z,66.50
2019-01-04T04:39:47.664Z,66.50
2019-01-04T04:44:54.000Z,66.50
2019-01-04T04:50:00.190Z,66.60
2019-01-04T04:55:06.637Z,66.50
2019-01-04T05:00:10.399Z,66.50
2019-01-04T05:05:16.755Z,66.60
2019-01-04T05:10:22.010Z,66.70
2019-01-04T05:15:25.623Z,66.70
2019-01-04T05:20:31.975Z,67.10
2019-01-04T05:25:37.503Z,67.10
2019-01-04T05:30:42.749Z,66.90
2019-01-04T05:35:52.175Z,66.40
2019-01-04T05:41:02.047Z,66.30
2019-01-04T05:46:07.296Z,66.40
2019-01-04T05:51:13.594Z,66.40
2019-01-04T05:56:17.225Z,65.90
2019-01-04T06:01:23.798Z,65.70
2019-01-04T06:06:28.394Z,65.70
2019-01-04T06:11:34.954Z,65.80
2019-01-04T06:16:38.562Z,66.80
2019-01-04T06:21:42.182Z,67.40
2019-01-04T06:26:45.843Z,67.40
2019-01-04T06:31:52.129Z,67.50
2019-01-04T06:37:01.532Z,66.80
2019-01-04T06:42:05.400Z,66.30
2019-01-04T06:47:14.242Z,65.70
2019-01-04T06:52:17.914Z,67.10
2019-01-04T06:57:24.477Z,66.70
2019-01-04T07:02:30.906Z,66.50
2019-01-04T07:07:34.745Z,66.60
2019-01-04T07:12:38.348Z,67.10
2019-01-04T07:17:49.571Z,66.80
2019-01-04T07:22:55.990Z,67.10
2019-01-04T07:28:02.304Z,67.60
2019-01-04T07:33:05.956Z,67.80
2019-01-04T07:38:09.545Z,68.10
2019-01-04T07:43:18.890Z,68.60
2019-01-04T07:48:27.946Z,68.20
2019-01-04T07:53:31.556Z,67.40
2019-01-04T07:58:35.180Z,67.10
2019-01-04T08:03:39.086Z,66.90
2019-01-04T08:08:45.396Z,67.80
2019-01-04T08:13:49.284Z,68.60
2019-01-04T08:18:53.049Z,68.50
2019-01-04T08:23:56.685Z,68.40
2019-01-04T08:29:04.926Z,68.40
2019-01-04T08:34:08.703Z,68.20
2019-01-04T08:39:13.251Z,68.20
2019-01-04T08:44:17.268Z,67.80
2019-01-04T08:49:20.973Z,67.70
2019-01-04T08:54:24.676Z,67.30
2019-01-04T08:59:30.441Z,67.30
2019-01-04T09:04:38.471Z,66.60
2019-01-04T09:09:47.860Z,66.00
2019-01-04T09:15:10.606Z,66.10
2019-01-04T09:20:12.592Z,66.20
2019-01-04T09:25:27.675Z,66.00
2019-01-04T09:30:45.974Z,67.50
2019-01-04T09:35:51.508Z,69.30
2019-01-04T09:41:23.610Z,66.20
2019-01-04T09:46:27.254Z,65.60
2019-01-04T09:51:34.128Z,63.40
2019-01-04T09:56:38.137Z,62.80
2019-01-04T10:01:43.822Z,63.00
2019-01-04T10:06:50.198Z,61.40
2019-01-04T10:11:53.885Z,59.80
2019-01-04T10:16:59.151Z,59.80
2019-01-04T10:22:08.681Z,59.60
2019-01-04T10:27:12.323Z,59.40
2019-01-04T10:32:17.187Z,58.60
2019-01-04T10:37:20.874Z,58.70
2019-01-04T10:42:24.753Z,57.90
2019-01-04T10:47:28.377Z,56.70
2019-01-04T10:52:32.099Z,55.00
2019-01-04T10:57:35.729Z,52.90
2019-01-04T11:02:39.331Z,52.70
2019-01-04T11:07:42.951Z,52.30
2019-01-04T11:12:51.184Z,48.60
2019-01-04T11:17:55.138Z,46.40
2019-01-04T11:23:04.539Z,43.00
2019-01-04T11:28:11.218Z,43.80
2019-01-04T11:33:17.961Z,44.20
2019-01-04T11:38:42.541Z,47.60
2019-01-04T11:44:10.035Z,48.80
2019-01-04T11:49:25.365Z,50.10
2019-01-04T11:54:38.684Z,49.40
2019-01-04T11:59:46.798Z,48.70
2019-01-04T12:05:00.760Z,49.90
2019-01-04T12:10:05.173Z,49.60
2019-01-04T12:15:09.003Z,49.10
2019-01-04T12:20:12.926Z,49.90
2019-01-04T12:35:33.786Z,49.20
2019-01-04T12:46:11.810Z,49.60
2019-01-04T12:51:21.365Z,50.90
2019-01-04T12:56:33.112Z,50.00
2019-01-04T13:01:36.611Z,48.60
2019-01-04T13:06:40.222Z,48.10
2019-01-04T13:11:43.844Z,47.50
2019-01-04T13:16:47.495Z,47.30
2019-01-04T13:21:51.102Z,47.70
2019-01-04T13:27:00.656Z,48.30
2019-01-04T13:32:05.877Z,50.70
2019-01-04T13:37:18.181Z,51.50
2019-01-04T13:42:21.779Z,52.60
2019-01-04T13:47:34.078Z,53.90
2019-01-04T13:52:37.720Z,55.10
2019-01-04T13:57:43.938Z,54.60
2019-01-04T14:02:47.574Z,54.00
2019-01-04T14:07:55.215Z,54.40
2019-01-04T14:13:01.847Z,54.20
2019-01-04T14:18:05.148Z,54.20
2019-01-04T14:23:08.783Z,54.60
2019-01-04T14:28:14.053Z,54.00
2019-01-04T14:33:17.673Z,53.10
2019-01-04T14:38:24.731Z,53.00
2019-01-04T14:43:28.283Z,52.40
2019-01-04T14:48:31.902Z,52.90
2019-01-04T14:53:38.447Z,53.60
2019-01-04T14:58:44.789Z,53.80
2019-01-04T15:03:48.452Z,53.90
2019-01-04T15:08:54.623Z,54.90
2019-01-04T15:14:00.698Z,55.00
2019-01-04T15:19:10.066Z,55.00
2019-01-04T15:24:14.446Z,54.80
2019-01-04T15:29:18.128Z,55.50
2019-01-04T15:34:21.927Z,55.90
2019-01-04T15:39:25.619Z,56.10
2019-01-04T15:44:32.191Z,55.90
2019-01-04T15:49:37.476Z,55.60
2019-01-04T15:54:41.087Z,55.70
2019-01-04T15:59:44.835Z,55.90
2019-01-04T16:04:48.506Z,56.20
2019-01-04T16:10:11.626Z,55.90
2019-01-04T16:15:15.404Z,55.40
2019-01-04T16:20:19.388Z,55.30
2019-01-04T16:25:42.410Z,55.50
2019-01-04T16:30:46.066Z,55.20
2019-01-04T16:41:00.454Z,56.20
2019-01-04T16:46:09.774Z,55.80
2019-01-04T16:51:16.678Z,56.10
2019-01-04T16:56:20.336Z,56.70
2019-01-04T17:01:23.977Z,56.20
2019-01-04T17:06:27.641Z,55.60
2019-01-04T17:11:31.249Z,55.10
2019-01-04T17:16:35.038Z,56.70
2019-01-04T17:21:38.702Z,57.10
2019-01-04T17:26:42.404Z,57.10
2019-01-04T17:31:46.119Z,57.90
2019-01-04T17:36:49.830Z,58.50
2019-01-04T17:41:53.534Z,58.90
2019-01-04T17:46:57.594Z,59.10
2019-01-04T17:52:01.282Z,59.20
2019-01-04T17:57:04.992Z,59.10
2019-01-04T18:02:08.953Z,59.10
2019-01-04T18:07:13.400Z,58.90
2019-01-04T18:12:17.151Z,59.00
2019-01-04T18:17:20.852Z,59.30
2019-01-04T18:22:24.474Z,59.70
2019-01-04T18:27:28.120Z,59.70
2019-01-04T18:32:31.803Z,59.40
2019-01-04T18:37:35.409Z,59.20
2019-01-04T18:42:39.220Z,59.20
2019-01-04T18:47:43.078Z,59.70
2019-01-04T18:52:51.192Z,59.60
2019-01-04T18:57:55.011Z,59.50
2019-01-04T19:02:58.711Z,60.00
2019-01-04T19:08:02.390Z,59.80
2019-01-04T19:13:06.149Z,60.00
2019-01-04T19:18:12.176Z,60.40
2019-01-04T19:23:18.613Z,59.90
2019-01-04T19:28:27.951Z,58.10
2019-01-04T19:33:37.553Z,57.00
2019-01-04T19:38:49.811Z,57.20
2019-01-04T19:43:55.663Z,58.30
2019-01-04T19:48:59.391Z,58.20
2019-01-04T19:54:02.955Z,56.90
2019-01-04T19:59:08.203Z,56.80
2019-01-04T20:04:16.427Z,56.50
2019-01-04T20:10:00.219Z,56.00
2019-01-04T20:15:29.397Z,56.90
2019-01-04T20:20:43.853Z,57.30
2019-01-04T20:25:57.655Z,58.10
2019-01-04T20:31:19.655Z,57.60
2019-01-04T20:36:27.864Z,57.80
2019-01-04T20:41:55.960Z,58.90
2019-01-04T20:47:10.176Z,58.50
2019-01-04T20:52:15.472Z,58.80
2019-01-04T20:57:37.522Z,59.40
2019-01-04T21:02:51.215Z,60.90
2019-01-04T21:08:10.992Z,60.50
2019-01-04T21:13:18.707Z,60.20
2019-01-04T21:18:29.723Z,59.90
2019-01-04T21:23:37.597Z,59.90
2019-01-04T21:28:42.838Z,59.40
2019-01-04T21:34:04.091Z,58.20
2019-01-04T21:39:11.031Z,58.00
2019-01-04T21:44:19.270Z,57.70
2019-01-04T21:49:42.832Z,58.10
2019-01-04T21:54:48.339Z,57.80
2019-01-04T21:59:59.318Z,58.40
2019-01-04T22:05:20.830Z,58.50
2019-01-04T22:10:47.219Z,58.90
2019-01-04T22:16:11.391Z,59.40
2019-01-04T22:21:31.215Z,59.60
2019-01-04T22:26:48.486Z,59.80
2019-01-04T22:31:53.731Z,59.70
2019-01-04T22:37:10.603Z,60.20
2019-01-04T22:42:21.528Z,59.70
2019-01-04T22:47:26.760Z,59.20
2019-01-04T22:52:37.914Z,59.70
2019-01-04T22:57:49.073Z,59.30
2019-01-04T23:03:10.199Z,59.80
2019-01-04T23:08:21.729Z,60.10
2019-01-04T23:13:27.005Z,60.00
2019-01-04T23:18:43.754Z,60.20
2019-01-04T23:24:00.855Z,60.50
2019-01-04T23:29:21.736Z,61.00
2019-01-04T23:34:35.795Z,60.50
2019-01-04T23:39:46.482Z,60.50
2019-01-04T23:45:08.052Z,60.40
2019-01-04T23:50:27.687Z,60.60
2019-01-04T23:55:44.773Z,60.40
